createdAt,value
2018-11-25T00:01:56.289Z,26.62
2018-11-25T00:04:24.551Z,26.93
2018-11-25T00:06:52.687Z,23.70
2018-11-25T00:09:20.857Z,27.37
2018-11-25T00:11:49.108Z,31.45
2018-11-25T00:14:17.345Z,33.02
2018-11-25T00:16:45.493Z,27.80
2018-11-25T00:19:13.757Z,30.07
2018-11-25T00:21:41.925Z,30.43
2018-11-25T00:24:10.094Z,22.55
2018-11-25T00:26:38.261Z,26.23
2018-11-25T00:29:06.429Z,26.93
2018-11-25T00:31:34.650Z,29.00
2018-11-25T00:34:02.848Z,30.08
2018-11-25T00:36:31.029Z,28.43
2018-11-25T00:38:59.184Z,28.83
2018-11-25T00:41:27.349Z,26.12
2018-11-25T00:43:55.514Z,30.07
2018-11-25T00:46:23.672Z,26.50
2018-11-25T00:48:51.879Z,31.87
2018-11-25T00:51:20.053Z,25.17
2018-11-25T00:53:48.208Z,27.30
2018-11-25T00:56:16.389Z,26.33
2018-11-25T00:58:44.533Z,23.13
2018-11-25T01:01:12.704Z,28.37
2018-11-25T01:03:40.857Z,24.00
2018-11-25T01:06:09.147Z,24.20
2018-11-25T01:08:37.293Z,29.13
2018-11-25T01:11:05.498Z,21.83
2018-11-25T01:13:33.747Z,23.43
2018-11-25T01:16:01.915Z,18.97
2018-11-25T01:18:30.085Z,24.97
2018-11-25T01:20:58.289Z,23.17
2018-11-25T01:23:26.441Z,25.43
2018-11-25T01:25:54.620Z,28.10
2018-11-25T01:28:22.791Z,22.87
2018-11-25T01:30:50.943Z,24.47
2018-11-25T01:33:19.136Z,22.63
2018-11-25T01:35:47.298Z,27.55
2018-11-25T01:38:15.450Z,24.07
2018-11-25T01:40:43.615Z,22.43
2018-11-25T01:43:11.764Z,27.37
2018-11-25T01:45:39.913Z,23.20
2018-11-25T01:48:08.050Z,24.93
2018-11-25T01:50:36.262Z,24.63
2018-11-25T01:53:04.399Z,31.80
2018-11-25T01:55:32.561Z,32.93
2018-11-25T01:58:00.729Z,24.23
2018-11-25T02:00:28.877Z,25.50
2018-11-25T02:02:57.021Z,31.10
2018-11-25T02:05:25.179Z,26.80
2018-11-25T02:07:53.317Z,27.60
2018-11-25T02:10:21.528Z,32.03
2018-11-25T02:12:49.607Z,32.87
2018-11-25T02:15:17.897Z,31.85
2018-11-25T02:17:46.069Z,33.90
2018-11-25T02:20:17.681Z,32.80
2018-11-25T02:22:45.819Z,27.00
2018-11-25T02:25:14.044Z,32.97
2018-11-25T02:27:42.164Z,31.83
2018-11-25T02:30:11.661Z,30.27
2018-11-25T02:32:39.819Z,33.20
2018-11-25T02:35:11.039Z,29.30
2018-11-25T02:37:39.239Z,31.27
2018-11-25T02:40:10.649Z,30.30
2018-11-25T02:42:38.872Z,33.77
2018-11-25T02:45:09.794Z,32.23
2018-11-25T02:47:37.951Z,36.08
2018-11-25T02:50:09.350Z,31.50
2018-11-25T02:52:37.548Z,33.10
2018-11-25T02:55:05.810Z,31.68
2018-11-25T02:57:33.955Z,32.00
2018-11-25T03:00:02.102Z,36.35
2018-11-25T03:02:30.266Z,36.10
2018-11-25T03:04:58.402Z,33.53
2018-11-25T03:07:26.581Z,29.83
2018-11-25T03:09:54.725Z,31.50
2018-11-25T03:12:22.890Z,31.63
2018-11-25T03:14:51.067Z,35.80
2018-11-25T03:17:19.257Z,35.60
2018-11-25T03:19:47.373Z,32.67
2018-11-25T03:22:15.514Z,41.10
2018-11-25T03:24:43.664Z,31.17
2018-11-25T03:27:11.813Z,35.88
2018-11-25T03:29:39.952Z,31.03
2018-11-25T03:32:08.099Z,35.83
2018-11-25T03:34:36.291Z,40.20
2018-11-25T03:37:04.598Z,34.10
2018-11-25T03:39:32.750Z,30.92
2018-11-25T03:42:00.958Z,33.70
2018-11-25T03:44:29.086Z,32.17
2018-11-25T03:46:57.263Z,38.50
2018-11-25T03:49:25.438Z,31.45
2018-11-25T03:51:53.591Z,33.17
2018-11-25T03:54:21.725Z,36.10
2018-11-25T03:56:49.889Z,32.70
2018-11-25T03:59:18.009Z,33.87
2018-11-25T04:01:46.249Z,32.73
2018-11-25T04:04:14.393Z,42.20
2018-11-25T04:06:42.534Z,36.97
2018-11-25T04:09:10.673Z,31.40
2018-11-25T04:11:38.841Z,35.37
2018-11-25T04:14:06.997Z,31.67
2018-11-25T04:16:35.162Z,37.10
2018-11-25T04:19:03.340Z,34.20
2018-11-25T04:21:31.487Z,32.63
2018-11-25T04:23:59.621Z,37.53
2018-11-25T04:26:27.756Z,32.13
2018-11-25T04:28:55.894Z,33.93
2018-11-25T04:31:24.169Z,32.80
2018-11-25T04:33:52.934Z,33.13
2018-11-25T04:36:21.077Z,36.17
2018-11-25T04:38:49.437Z,36.63
2018-11-25T04:41:17.605Z,32.37
2018-11-25T04:43:45.913Z,27.60
2018-11-25T04:46:14.123Z,35.92
2018-11-25T04:48:42.281Z,34.10
2018-11-25T04:51:10.463Z,35.50
2018-11-25T04:53:38.596Z,31.30
2018-11-25T04:56:06.749Z,33.33
2018-11-25T04:58:34.905Z,40.10
2018-11-25T05:01:03.101Z,37.70
2018-11-25T05:03:31.273Z,43.60
2018-11-25T05:05:59.401Z,32.90
2018-11-25T05:08:27.598Z,35.50
2018-11-25T05:10:55.973Z,40.87
2018-11-25T05:13:24.169Z,32.90
2018-11-25T05:15:52.413Z,37.60
2018-11-25T05:18:20.635Z,31.63
2018-11-25T05:20:48.744Z,32.03
2018-11-25T05:23:17.040Z,35.05
2018-11-25T05:25:45.241Z,33.40
2018-11-25T05:28:13.454Z,32.48
2018-11-25T05:30:41.701Z,32.90
2018-11-25T05:33:09.945Z,30.68
2018-11-25T05:35:38.144Z,32.73
2018-11-25T05:38:06.323Z,28.35
2018-11-25T05:40:34.481Z,28.15
2018-11-25T05:43:02.633Z,33.42
2018-11-25T05:45:30.830Z,28.67
2018-11-25T05:47:58.958Z,33.55
2018-11-25T05:50:27.114Z,28.30
2018-11-25T05:52:55.273Z,24.40
2018-11-25T05:55:23.427Z,29.67
2018-11-25T05:57:51.562Z,29.23
2018-11-25T06:00:30.733Z,29.80
2018-11-25T06:02:58.872Z,28.47
2018-11-25T06:05:27.030Z,27.45
2018-11-25T06:07:55.167Z,29.57
2018-11-25T06:10:23.381Z,28.60
2018-11-25T06:12:51.499Z,29.40
2018-11-25T06:15:19.636Z,33.83
2018-11-25T06:17:47.778Z,43.05
2018-11-25T06:20:16.615Z,31.07
2018-11-25T06:22:45.241Z,30.50
2018-11-25T06:25:15.345Z,33.50
2018-11-25T06:27:43.592Z,26.90
2018-11-25T06:30:12.743Z,27.45
2018-11-25T06:32:41.042Z,26.23
2018-11-25T06:35:10.334Z,22.80
2018-11-25T06:37:38.499Z,25.72
2018-11-25T06:40:09.676Z,30.90
2018-11-25T06:42:37.945Z,28.83
2018-11-25T06:45:09.645Z,25.32
2018-11-25T06:47:37.805Z,28.83
2018-11-25T06:50:07.570Z,25.85
2018-11-25T06:52:35.817Z,28.17
2018-11-25T06:55:04.121Z,30.62
2018-11-25T06:57:32.421Z,24.63
2018-11-25T07:00:00.575Z,26.55
2018-11-25T07:02:28.763Z,29.00
2018-11-25T07:04:57.045Z,23.42
2018-11-25T07:07:25.270Z,27.00
2018-11-25T07:09:53.478Z,20.80
2018-11-25T07:12:21.726Z,21.77
2018-11-25T07:14:49.902Z,30.90
2018-11-25T07:17:18.043Z,22.40
2018-11-25T07:19:46.189Z,21.62
2018-11-25T07:22:14.327Z,19.40
2018-11-25T07:24:42.484Z,24.63
2018-11-25T07:27:10.634Z,19.75
2018-11-25T07:29:38.785Z,20.40
2018-11-25T07:32:06.988Z,20.43
2018-11-25T07:34:35.140Z,20.60
2018-11-25T07:37:03.343Z,21.02
2018-11-25T07:39:31.491Z,21.30
2018-11-25T07:41:59.650Z,20.85
2018-11-25T07:44:27.862Z,22.03
2018-11-25T07:46:55.991Z,24.20
2018-11-25T07:49:24.146Z,14.78
2018-11-25T07:51:52.318Z,22.32
2018-11-25T07:54:20.462Z,14.30
2018-11-25T07:56:48.629Z,17.10
2018-11-25T07:59:16.781Z,21.77
2018-11-25T08:01:44.953Z,20.82
2018-11-25T08:04:13.185Z,19.87
2018-11-25T08:06:41.338Z,21.33
2018-11-25T08:09:09.469Z,24.07
2018-11-25T08:11:37.630Z,21.37
2018-11-25T08:14:05.770Z,24.82
2018-11-25T08:16:33.937Z,22.02
2018-11-25T08:19:02.111Z,23.67
2018-11-25T08:21:30.280Z,22.07
2018-11-25T08:23:58.492Z,25.82
2018-11-25T08:26:26.618Z,23.75
2018-11-25T08:28:54.802Z,27.22
2018-11-25T08:31:22.950Z,28.80
2018-11-25T08:33:50.914Z,28.17
2018-11-25T08:36:19.050Z,21.00
2018-11-25T08:38:47.209Z,23.70
2018-11-25T08:41:15.360Z,24.70
2018-11-25T08:43:43.525Z,27.37
2018-11-25T08:46:11.701Z,26.25
2018-11-25T08:48:39.931Z,25.17
2018-11-25T08:51:08.172Z,27.40
2018-11-25T08:53:36.409Z,25.97
2018-11-25T08:56:04.967Z,24.72
2018-11-25T08:58:33.134Z,24.15
2018-11-25T09:01:01.337Z,23.18
2018-11-25T09:03:29.508Z,24.03
2018-11-25T09:05:57.655Z,22.30
2018-11-25T09:08:25.781Z,23.62
2018-11-25T09:10:54.006Z,18.67
2018-11-25T09:13:22.149Z,23.15
2018-11-25T09:15:50.280Z,24.30
2018-11-25T09:18:18.426Z,23.77
2018-11-25T09:20:46.633Z,19.70
2018-11-25T09:23:14.772Z,21.27
2018-11-25T09:25:42.923Z,22.75
2018-11-25T09:28:11.085Z,19.17
2018-11-25T09:30:39.201Z,23.80
2018-11-25T09:33:07.389Z,22.73
2018-11-25T09:35:35.532Z,29.95
2018-11-25T09:38:03.871Z,22.67
2018-11-25T09:40:32.025Z,22.17
2018-11-25T09:43:00.181Z,23.90
2018-11-25T09:45:28.349Z,18.95
2018-11-25T09:47:56.552Z,22.42
2018-11-25T09:50:24.866Z,23.35
2018-11-25T09:52:53.046Z,31.65
2018-11-25T09:55:25.595Z,31.13
2018-11-25T09:57:59.742Z,22.17
2018-11-25T10:00:32.147Z,25.20
2018-11-25T10:03:00.709Z,26.05
2018-11-25T10:05:28.854Z,23.80
2018-11-25T10:07:57.018Z,24.32
2018-11-25T10:10:25.388Z,25.77
2018-11-25T10:12:53.521Z,29.48
2018-11-25T10:15:22.779Z,25.68
2018-11-25T10:17:59.047Z,30.68
2018-11-25T10:20:21.109Z,27.98
2018-11-25T10:22:49.258Z,25.40
2018-11-25T10:25:17.634Z,34.67
2018-11-25T10:27:45.835Z,28.90
2018-11-25T10:30:19.785Z,23.60
2018-11-25T10:32:49.540Z,19.93
2018-11-25T10:35:17.679Z,28.80
2018-11-25T10:37:45.855Z,32.25
2018-11-25T10:40:16.043Z,31.75
2018-11-25T10:42:44.233Z,34.25
2018-11-25T10:45:15.339Z,38.17
2018-11-25T10:47:43.513Z,29.70
2018-11-25T10:50:13.052Z,36.10
2018-11-25T10:52:41.220Z,27.90
2018-11-25T10:55:10.441Z,29.52
2018-11-25T10:57:40.049Z,33.42
2018-11-25T11:00:24.612Z,27.05
2018-11-25T11:02:58.140Z,36.45
2018-11-25T11:05:31.718Z,30.02
2018-11-25T11:07:59.985Z,39.70
2018-11-25T11:10:28.126Z,37.70
2018-11-25T11:12:56.287Z,43.23
2018-11-25T11:15:24.461Z,37.98
2018-11-25T11:17:52.749Z,37.88
2018-11-25T11:20:20.887Z,38.25
2018-11-25T11:22:49.030Z,37.13
2018-11-25T11:25:17.182Z,34.70
2018-11-25T11:27:45.465Z,38.42
2018-11-25T11:30:13.676Z,35.92
2018-11-25T11:32:43.412Z,35.50
2018-11-25T11:35:11.667Z,41.00
2018-11-25T11:37:39.823Z,35.43
2018-11-25T11:40:11.302Z,43.87
2018-11-25T11:42:39.497Z,39.17
2018-11-25T11:45:09.437Z,32.77
2018-11-25T11:47:37.928Z,42.87
2018-11-25T11:50:09.097Z,40.70
2018-11-25T11:52:37.481Z,32.70
2018-11-25T11:55:07.644Z,34.53
2018-11-25T11:57:35.829Z,34.50
2018-11-25T12:00:07.478Z,41.10
2018-11-25T12:02:35.625Z,37.00
2018-11-25T12:05:04.166Z,41.53
2018-11-25T12:07:32.599Z,40.47
2018-11-25T12:10:00.783Z,38.37
2018-11-25T12:12:28.911Z,33.83
2018-11-25T12:14:57.038Z,42.10
2018-11-25T12:17:25.228Z,40.47
2018-11-25T12:19:53.458Z,33.13
2018-11-25T12:22:21.604Z,33.33
2018-11-25T12:24:49.848Z,38.50
2018-11-25T12:27:17.980Z,41.53
2018-11-25T12:29:46.152Z,33.67
2018-11-25T12:32:14.513Z,37.20
2018-11-25T12:34:42.692Z,39.57
2018-11-25T12:37:10.865Z,30.70
2018-11-25T12:39:38.988Z,31.13
2018-11-25T12:42:07.204Z,31.23
2018-11-25T12:44:35.341Z,30.03
2018-11-25T12:47:03.792Z,35.40
2018-11-25T12:49:32.132Z,35.97
2018-11-25T12:52:00.839Z,38.23
2018-11-25T12:54:28.952Z,34.57
2018-11-25T12:56:57.097Z,31.97
2018-11-25T12:59:25.206Z,33.30
2018-11-25T13:01:53.352Z,36.23
2018-11-25T13:04:27.712Z,35.40
2018-11-25T13:06:50.297Z,26.57
2018-11-25T13:09:18.416Z,38.57
2018-11-25T13:11:52.277Z,36.67
2018-11-25T13:14:15.060Z,36.97
2018-11-25T13:16:43.198Z,37.17
2018-11-25T13:19:11.331Z,26.00
2018-11-25T13:21:39.620Z,37.23
2018-11-25T13:24:07.782Z,33.00
2018-11-25T13:26:37.176Z,30.60
2018-11-25T13:29:06.089Z,35.20
2018-11-25T13:31:34.246Z,23.30
2018-11-25T13:34:02.373Z,29.27
2018-11-25T13:36:30.536Z,29.93
2018-11-25T13:38:58.664Z,34.67
2018-11-25T13:41:26.800Z,31.37
2018-11-25T13:43:54.912Z,25.33
2018-11-25T13:46:23.050Z,36.73
2018-11-25T13:48:51.746Z,30.63
2018-11-25T13:51:19.962Z,28.00
2018-11-25T13:53:48.093Z,27.53
2018-11-25T13:56:16.273Z,30.80
2018-11-25T13:58:44.393Z,25.10
2018-11-25T14:01:12.553Z,24.73
2018-11-25T14:03:42.161Z,26.57
2018-11-25T14:06:12.727Z,24.30
2018-11-25T14:08:41.270Z,28.53
2018-11-25T14:11:11.945Z,24.67
2018-11-25T14:13:40.274Z,20.23
2018-11-25T14:16:10.274Z,29.53
2018-11-25T14:18:38.416Z,20.37
2018-11-25T14:21:06.708Z,22.20
2018-11-25T14:23:34.895Z,18.73
2018-11-25T14:26:07.020Z,24.13
2018-11-25T14:28:35.177Z,18.70
2018-11-25T14:31:03.557Z,26.73
2018-11-25T14:33:31.712Z,19.77
2018-11-25T14:35:59.913Z,19.53
2018-11-25T14:38:28.056Z,22.60
2018-11-25T14:40:56.539Z,25.70
2018-11-25T14:43:24.852Z,24.63
2018-11-25T14:45:53.079Z,17.90
2018-11-25T14:48:21.208Z,21.23
2018-11-25T14:50:49.404Z,21.90
2018-11-25T14:53:17.556Z,21.30
2018-11-25T14:55:45.705Z,21.90
2018-11-25T14:58:13.853Z,25.07
2018-11-25T15:00:42.002Z,16.50
2018-11-25T15:03:10.134Z,24.93
2018-11-25T15:05:42.709Z,16.30
2018-11-25T15:08:13.666Z,21.50
2018-11-25T15:10:41.892Z,18.60
2018-11-25T15:13:10.052Z,17.52
2018-11-25T15:15:38.207Z,19.87
2018-11-25T15:18:07.450Z,24.23
2018-11-25T15:20:35.638Z,17.70
2018-11-25T15:23:06.185Z,20.50
2018-11-25T15:25:36.012Z,20.30
2018-11-25T15:28:04.190Z,21.33
2018-11-25T15:30:32.446Z,23.87
2018-11-25T15:33:00.618Z,21.80
2018-11-25T15:35:28.781Z,23.87
2018-11-25T15:38:03.455Z,25.03
2018-11-25T15:40:33.042Z,21.57
2018-11-25T15:43:01.245Z,29.30
2018-11-25T15:45:29.391Z,21.83
2018-11-25T15:48:01.368Z,19.63
2018-11-25T15:50:30.087Z,25.57
2018-11-25T15:52:58.252Z,22.07
2018-11-25T15:55:26.391Z,23.07
2018-11-25T15:57:54.555Z,22.20
2018-11-25T16:00:23.735Z,20.17
2018-11-25T16:02:51.903Z,20.40
2018-11-25T16:05:22.554Z,21.20
2018-11-25T16:07:51.810Z,17.77
2018-11-25T16:10:20.052Z,25.97
2018-11-25T16:12:49.060Z,22.42
2018-11-25T16:15:18.517Z,27.20
2018-11-25T16:17:46.755Z,24.97
2018-11-25T16:20:16.282Z,25.60
2018-11-25T16:22:44.942Z,28.00
2018-11-25T16:25:18.023Z,24.83
2018-11-25T16:27:46.711Z,24.43
2018-11-25T16:30:14.909Z,24.85
2018-11-25T16:32:43.161Z,23.10
2018-11-25T16:35:11.784Z,23.83
2018-11-25T16:37:41.062Z,22.57
2018-11-25T16:40:14.709Z,27.47
2018-11-25T16:42:42.976Z,28.40
2018-11-25T16:45:12.623Z,28.47
2018-11-25T16:47:40.874Z,25.25
2018-11-25T16:50:12.609Z,23.80
2018-11-25T16:52:40.785Z,26.43
2018-11-25T16:55:10.301Z,26.20
2018-11-25T16:57:38.873Z,25.07
2018-11-25T17:00:13.205Z,24.07
2018-11-25T17:02:41.513Z,25.90
2018-11-25T17:05:15.382Z,26.17
2018-11-25T17:07:44.524Z,28.23
2018-11-25T17:10:12.677Z,22.05
2018-11-25T17:12:40.845Z,24.98
2018-11-25T17:15:16.421Z,26.50
2018-11-25T17:17:44.557Z,28.80
2018-11-25T17:20:12.726Z,25.30
2018-11-25T17:22:40.903Z,22.98
2018-11-25T17:25:11.864Z,23.15
2018-11-25T17:27:38.770Z,23.03
2018-11-25T17:30:15.806Z,22.60
2018-11-25T17:32:45.305Z,22.80
2018-11-25T17:35:17.004Z,19.45
2018-11-25T17:37:45.149Z,21.70
2018-11-25T17:40:13.313Z,21.43
2018-11-25T17:42:41.478Z,17.93
2018-11-25T17:45:10.866Z,20.40
2018-11-25T17:47:39.077Z,24.57
2018-11-25T17:50:15.180Z,26.70
2018-11-25T17:52:43.349Z,23.17
2018-11-25T17:55:12.644Z,24.80
2018-11-25T17:57:40.812Z,25.27
2018-11-25T18:00:38.819Z,25.80
2018-11-25T18:03:09.994Z,20.97
2018-11-25T18:05:38.929Z,25.97
2018-11-25T18:08:06.427Z,23.25
2018-11-25T18:10:34.579Z,26.07
2018-11-25T18:13:03.298Z,24.53
2018-11-25T18:15:31.445Z,24.50
2018-11-25T18:18:02.386Z,25.67
2018-11-25T18:20:51.455Z,25.02
2018-11-25T18:23:19.763Z,25.73
2018-11-25T18:25:47.895Z,28.47
2018-11-25T18:28:16.062Z,26.47
2018-11-25T18:30:44.224Z,25.27
2018-11-25T18:33:12.433Z,24.97
2018-11-25T18:35:40.869Z,26.90
2018-11-25T18:38:09.096Z,20.40
2018-11-25T18:40:37.341Z,27.00
2018-11-25T18:43:06.162Z,27.03
2018-11-25T18:45:34.546Z,23.65
2018-11-25T18:48:02.725Z,26.93
2018-11-25T18:50:30.892Z,27.65
2018-11-25T18:52:59.072Z,24.13
2018-11-25T18:55:26.254Z,21.17
2018-11-25T18:57:54.420Z,21.10
2018-11-25T19:01:59.811Z,26.50
2018-11-25T19:04:28.123Z,26.80
2018-11-25T19:06:56.367Z,23.62
2018-11-25T19:09:24.535Z,29.37
2018-11-25T19:11:52.665Z,24.47
2018-11-25T19:14:20.814Z,28.10
2018-11-25T19:16:49.024Z,25.27
2018-11-25T19:19:17.245Z,20.80
2018-11-25T19:21:45.361Z,28.40
2018-11-25T19:24:13.536Z,24.47
2018-11-25T19:26:41.671Z,26.40
2018-11-25T19:29:10.387Z,23.15
2018-11-25T19:31:38.549Z,24.75
2018-11-25T19:34:06.756Z,22.25
2018-11-25T19:36:35.109Z,26.63
2018-11-25T19:39:05.090Z,26.55
2018-11-25T19:41:33.277Z,27.60
2018-11-25T19:44:01.475Z,24.30
2018-11-25T19:46:29.638Z,24.30
2018-11-25T19:48:57.803Z,26.17
2018-11-25T19:51:26.775Z,29.45
2018-11-25T19:53:54.977Z,29.83
2018-11-25T19:56:23.189Z,31.35
2018-11-25T19:58:51.377Z,25.53
2018-11-25T20:01:19.568Z,28.07
2018-11-25T20:03:47.783Z,23.30
2018-11-25T20:06:16.222Z,26.93
2018-11-25T20:08:44.361Z,24.83
2018-11-25T20:11:12.508Z,30.40
2018-11-25T20:13:40.645Z,29.77
2018-11-25T20:16:14.261Z,27.95
2018-11-25T20:18:42.501Z,30.75
2018-11-25T20:21:15.990Z,28.85
2018-11-25T20:23:44.168Z,26.30
2018-11-25T20:26:12.313Z,26.17
2018-11-25T20:28:40.476Z,27.67
2018-11-25T20:31:08.657Z,28.62
2018-11-25T20:33:42.231Z,29.48
2018-11-25T20:36:10.349Z,33.70
2018-11-25T20:38:44.009Z,35.63
2018-11-25T20:41:12.150Z,31.87
2018-11-25T20:43:40.353Z,28.90
2018-11-25T20:46:14.079Z,31.05
2018-11-25T20:48:42.233Z,30.88
2018-11-25T20:51:10.413Z,28.38
2018-11-25T20:53:44.010Z,29.05
2018-11-25T20:56:12.153Z,30.08
2018-11-25T20:58:40.348Z,26.20
2018-11-25T21:01:08.490Z,30.10
2018-11-25T21:03:36.669Z,33.53
2018-11-25T21:06:05.249Z,26.30
2018-11-25T21:08:33.397Z,31.73
2018-11-25T21:11:01.569Z,25.85
2018-11-25T21:13:29.703Z,25.25
2018-11-25T21:15:58.066Z,28.52
2018-11-25T21:18:26.246Z,28.40
2018-11-25T21:20:54.448Z,29.15
2018-11-25T21:23:22.582Z,28.55
2018-11-25T21:25:50.709Z,30.95
2018-11-25T21:28:18.869Z,27.10
2018-11-25T21:30:47.025Z,23.35
2018-11-25T21:33:15.206Z,25.17
2018-11-25T21:35:43.342Z,25.85
2018-11-25T21:38:11.478Z,32.35
2018-11-25T21:40:39.623Z,30.27
2018-11-25T21:43:07.756Z,29.50
2018-11-25T21:45:36.002Z,27.52
2018-11-25T21:48:04.240Z,31.45
2018-11-25T21:50:32.459Z,35.90
2018-11-25T21:53:00.605Z,37.55
2018-11-25T21:55:28.850Z,29.30
2018-11-25T21:57:57.006Z,23.45
2018-11-25T22:00:25.721Z,30.15
2018-11-25T22:02:53.877Z,31.82
2018-11-25T22:05:24.830Z,23.50
2018-11-25T22:07:50.185Z,30.52
2018-11-25T22:10:19.375Z,28.37
2018-11-25T22:12:47.876Z,29.92
2018-11-25T22:15:21.632Z,31.00
2018-11-25T22:17:49.865Z,33.88
2018-11-25T22:20:18.373Z,26.25
2018-11-25T22:22:46.530Z,35.90
2018-11-25T22:25:15.895Z,34.38
2018-11-25T22:27:44.093Z,32.90
2018-11-25T22:30:26.756Z,25.97
2018-11-25T22:32:54.951Z,44.80
2018-11-25T22:35:23.681Z,31.25
2018-11-25T22:37:51.885Z,31.30
2018-11-25T22:40:20.373Z,33.75
2018-11-25T22:42:49.315Z,31.27
2018-11-25T22:45:19.266Z,41.77
2018-11-25T22:47:47.387Z,28.07
2018-11-25T22:50:16.594Z,26.83
2018-11-25T22:52:44.868Z,35.43
2018-11-25T22:55:14.147Z,34.10
2018-11-25T22:57:42.300Z,30.27
2018-11-25T23:00:18.007Z,31.80
2018-11-25T23:02:46.166Z,25.88
2018-11-25T23:05:25.832Z,31.75
2018-11-25T23:07:53.981Z,27.82
2018-11-25T23:10:22.173Z,32.50
2018-11-25T23:12:50.521Z,30.23
2018-11-25T23:15:18.725Z,26.75
2018-11-25T23:17:46.885Z,26.60
2018-11-25T23:20:15.046Z,22.20
2018-11-25T23:22:43.181Z,25.43
2018-11-25T23:25:11.320Z,27.02
2018-11-25T23:27:40.062Z,30.00
2018-11-25T23:30:09.154Z,29.57
2018-11-25T23:32:37.341Z,23.38
2018-11-25T23:35:08.520Z,24.90
2018-11-25T23:37:36.666Z,26.27
2018-11-25T23:40:05.581Z,27.17
2018-11-25T23:42:33.736Z,25.25
2018-11-25T23:45:01.900Z,27.55
2018-11-25T23:47:30.052Z,26.25
2018-11-25T23:49:58.202Z,27.07
2018-11-25T23:52:26.429Z,22.00
2018-11-25T23:54:54.565Z,24.57
2018-11-25T23:57:22.710Z,27.67
2018-11-25T23:59:50.840Z,24.98
